Time;durP1;ratioP1;P1;durP2;ratioP2;P2;SDS_P1;SDS_P2;PMS_P1;PMS_P2;Temp;Humidity;BMP_temperature;BMP_pressure;BME280_temperature;BME280_humidity;BME280_pressure;Samples;Min_cycle;Max_cycle;Signal;HPM_P1;HPM_P2
2022/05/29 00:01:58;;;;;;;;;;;11.90;97.60;;;;;;5051045;28;20234;-68
2022/05/29 00:04:26;;;;;;;;;;;12.00;98.20;;;;;;5050851;28;20211;-65
2022/05/29 00:06:57;;;;;;;;;;;12.00;98.30;;;;;;5051492;28;20656;-65
2022/05/29 00:09:31;;;;;;;;;;;12.10;98.50;;;;;;5052026;28;20715;-65
2022/05/29 00:11:59;;;;;;;;;;;12.10;98.50;;;;;;5053387;28;20212;-64
2022/05/29 00:14:27;;;;;;;;;;;12.00;98.60;;;;;;5052306;28;20206;-64
2022/05/29 00:16:55;;;;;;;;;;;12.00;99.00;;;;;;5051195;28;20241;-65
2022/05/29 00:19:23;;;;;;;;;;;12.00;98.80;;;;;;5051078;28;20199;-65
2022/05/29 00:21:51;;;;;;;;;;;12.00;99.20;;;;;;5051300;28;20660;-64
2022/05/29 00:24:20;;;;;;;;;;;12.10;99.00;;;;;;5050489;28;20230;-64
2022/05/29 00:26:48;;;;;;;;;;;11.80;98.80;;;;;;5051035;28;20659;-64
2022/05/29 00:29:16;;;;;;;;;;;11.70;99.10;;;;;;5051003;28;20539;-63
2022/05/29 00:31:43;;;;;;;;;;;11.60;99.30;;;;;;5053388;28;20285;-63
2022/05/29 00:34:11;;;;;;;;;;;11.30;99.90;;;;;;5053786;28;20225;-64
2022/05/29 00:36:40;;;;;;;;;;;11.30;99.90;;;;;;5054728;28;20281;-62
2022/05/29 00:39:08;;;;;;;;;;;11.40;99.90;;;;;;5054324;28;20763;-63
2022/05/29 00:41:38;;;;;;;;;;;11.30;99.90;;;;;;5054346;28;20621;-64
2022/05/29 00:44:12;;;;;;;;;;;11.20;99.90;;;;;;5053796;28;20754;-64
2022/05/29 00:46:43;;;;;;;;;;;11.30;99.90;;;;;;5054636;28;20591;-64
2022/05/29 00:49:11;;;;;;;;;;;11.10;99.90;;;;;;5047742;28;20202;-64
2022/05/29 00:51:40;;;;;;;;;;;11.20;99.90;;;;;;5047705;28;20230;-63
2022/05/29 00:54:08;;;;;;;;;;;11.30;99.90;;;;;;5046618;28;20233;-64
2022/05/29 00:56:38;;;;;;;;;;;11.50;99.90;;;;;;5047469;28;20300;-64
2022/05/29 00:59:07;;;;;;;;;;;11.50;99.90;;;;;;5047887;28;20195;-64
2022/05/29 01:01:35;;;;;;;;;;;11.50;99.90;;;;;;5054290;28;20202;-63
2022/05/29 01:04:03;;;;;;;;;;;11.40;99.90;;;;;;5053106;28;20214;-64
2022/05/29 01:06:31;;;;;;;;;;;11.20;99.90;;;;;;5054150;28;20662;-64
2022/05/29 01:09:00;;;;;;;;;;;11.20;99.90;;;;;;5053944;28;20206;-64
2022/05/29 01:11:34;;;;;;;;;;;11.10;99.90;;;;;;5053929;28;20221;-64
2022/05/29 01:14:07;;;;;;;;;;;11.00;99.90;;;;;;5058289;28;20289;-64
2022/05/29 01:16:38;;;;;;;;;;;10.90;99.90;;;;;;5054021;28;20198;-65
2022/05/29 01:19:27;;;;;;;;;;;10.90;99.90;;;;;;5053669;28;20229;-63
2022/05/29 01:22:03;;;;;;;;;;;10.80;99.90;;;;;;5051869;28;20242;-63
2022/05/29 01:24:45;;;;;;;;;;;10.80;99.90;;;;;;5053802;28;20210;-63
2022/05/29 01:27:28;;;;;;;;;;;10.70;99.90;;;;;;5054023;28;20692;-63
2022/05/29 01:30:02;;;;;;;;;;;10.80;99.90;;;;;;5052978;28;20691;-63
2022/05/29 01:32:35;;;;;;;;;;;10.70;99.90;;;;;;5052933;28;20234;-63
2022/05/29 01:35:06;;;;;;;;;;;10.70;99.90;;;;;;5053650;28;20202;-63
2022/05/29 01:37:38;;;;;;;;;;;10.70;99.90;;;;;;5053669;28;20226;-63
2022/05/29 01:40:07;;;;;;;;;;;10.70;99.90;;;;;;5053203;28;20241;-64
2022/05/29 01:42:36;;;;;;;;;;;10.70;99.90;;;;;;5051539;28;20285;-64
2022/05/29 01:45:07;;;;;;;;;;;10.80;99.90;;;;;;5053279;28;20296;-64
2022/05/29 01:47:39;;;;;;;;;;;10.80;99.90;;;;;;5046896;28;20289;-64
2022/05/29 01:50:10;;;;;;;;;;;10.70;99.90;;;;;;5053379;28;20202;-62
2022/05/29 01:52:41;;;;;;;;;;;10.70;99.90;;;;;;5052307;28;20225;-64
2022/05/29 01:55:12;;;;;;;;;;;10.70;99.90;;;;;;5053116;28;20236;-64
2022/05/29 01:57:42;;;;;;;;;;;10.60;99.90;;;;;;5052954;28;20285;-64
2022/05/29 02:00:12;;;;;;;;;;;10.60;99.90;;;;;;5053094;28;20199;-64
2022/05/29 02:02:49;;;;;;;;;;;10.60;99.90;;;;;;5052180;28;20202;-67
2022/05/29 02:05:18;;;;;;;;;;;10.60;99.90;;;;;;5052555;28;20728;-64
2022/05/29 02:07:50;;;;;;;;;;;10.50;99.90;;;;;;5052933;28;20642;-63
2022/05/29 02:10:24;;;;;;;;;;;10.40;99.90;;;;;;5052842;28;20240;-64
2022/05/29 02:12:54;;;;;;;;;;;10.40;99.90;;;;;;5065018;28;20289;-64
2022/05/29 02:15:28;;;;;;;;;;;10.30;99.90;;;;;;5053131;28;20663;-64
2022/05/29 02:17:58;;;;;;;;;;;10.20;99.90;;;;;;5052698;28;20286;-64
2022/05/29 02:20:27;;;;;;;;;;;10.20;99.90;;;;;;5052909;28;20226;-64
2022/05/29 02:22:59;;;;;;;;;;;10.20;99.90;;;;;;5071182;28;20288;-65
2022/05/29 02:25:28;;;;;;;;;;;10.00;99.90;;;;;;5072130;28;20202;-63
2022/05/29 02:27:58;;;;;;;;;;;10.00;99.90;;;;;;5071612;28;20236;-63
2022/05/29 02:30:30;;;;;;;;;;;10.00;99.90;;;;;;5071581;28;20222;-63
2022/05/29 02:33:01;;;;;;;;;;;9.90;99.90;;;;;;5070785;28;20202;-63
2022/05/29 02:35:33;;;;;;;;;;;9.90;99.90;;;;;;5071510;28;20288;-63
2022/05/29 02:38:05;;;;;;;;;;;9.90;99.90;;;;;;5071974;28;20623;-64
2022/05/29 02:40:38;;;;;;;;;;;9.90;99.90;;;;;;5053270;28;20190;-63
2022/05/29 02:43:09;;;;;;;;;;;9.80;99.90;;;;;;5048532;28;20639;-63
2022/05/29 02:45:46;;;;;;;;;;;9.70;99.90;;;;;;5052024;28;20209;-63
2022/05/29 02:48:17;;;;;;;;;;;9.70;99.90;;;;;;5052078;28;20209;-64
2022/05/29 02:50:47;;;;;;;;;;;9.60;99.90;;;;;;5051917;28;20202;-64
2022/05/29 02:53:16;;;;;;;;;;;9.60;99.90;;;;;;5050942;28;20206;-63
2022/05/29 02:55:45;;;;;;;;;;;9.60;99.90;;;;;;5052006;28;20272;-63
2022/05/29 02:58:18;;;;;;;;;;;9.70;99.90;;;;;;5052087;28;20746;-63
2022/05/29 03:01:03;;;;;;;;;;;9.70;99.90;;;;;;5045449;28;20228;-64
2022/05/29 03:03:34;;;;;;;;;;;9.70;99.90;;;;;;5050485;28;20316;-63
2022/05/29 03:06:08;;;;;;;;;;;9.70;99.90;;;;;;5051968;28;20214;-63
2022/05/29 03:08:44;;;;;;;;;;;9.70;99.90;;;;;;5052043;28;20229;-63
2022/05/29 03:11:14;;;;;;;;;;;9.70;99.90;;;;;;5047746;28;20295;-64
2022/05/29 03:13:48;;;;;;;;;;;9.70;99.90;;;;;;5050711;28;20557;-63
2022/05/29 03:16:21;;;;;;;;;;;9.60;99.90;;;;;;5051708;28;20281;-63
2022/05/29 03:18:55;;;;;;;;;;;9.60;99.90;;;;;;5051646;28;20206;-63
2022/05/29 03:21:24;;;;;;;;;;;9.70;99.90;;;;;;5051915;28;20249;-64
2022/05/29 03:23:56;;;;;;;;;;;9.70;99.90;;;;;;5050636;28;20209;-63
2022/05/29 03:26:26;;;;;;;;;;;9.70;99.90;;;;;;5070965;28;20241;-64
2022/05/29 03:28:57;;;;;;;;;;;9.70;99.90;;;;;;5045025;28;20203;-63
2022/05/29 03:31:26;;;;;;;;;;;9.70;99.90;;;;;;5051833;28;20233;-63
2022/05/29 03:33:56;;;;;;;;;;;9.60;99.90;;;;;;5050801;28;20217;-63
2022/05/29 03:36:25;;;;;;;;;;;9.60;99.90;;;;;;5051738;28;20224;-63
2022/05/29 03:38:53;;;;;;;;;;;9.60;99.90;;;;;;5051447;28;20209;-63
2022/05/29 03:41:23;;;;;;;;;;;9.50;99.90;;;;;;5051255;28;20233;-63
2022/05/29 03:43:51;;;;;;;;;;;9.60;99.90;;;;;;5054331;28;20236;-63
2022/05/29 03:46:18;;;;;;;;;;;9.60;99.90;;;;;;5051380;28;20244;-63
2022/05/29 03:48:46;;;;;;;;;;;9.60;99.90;;;;;;5051451;28;20190;-63
2022/05/29 03:51:15;;;;;;;;;;;9.60;99.90;;;;;;5051629;28;20241;-64
2022/05/29 03:53:43;;;;;;;;;;;9.60;99.90;;;;;;5050750;28;20724;-64
2022/05/29 03:56:11;;;;;;;;;;;9.50;99.90;;;;;;5051197;28;20581;-64
2022/05/29 03:58:39;;;;;;;;;;;9.50;99.90;;;;;;5051242;28;20230;-64
2022/05/29 04:01:07;;;;;;;;;;;9.50;99.90;;;;;;5051824;28;20215;-63
2022/05/29 04:03:35;;;;;;;;;;;9.50;99.90;;;;;;5050323;28;20260;-64
2022/05/29 04:06:03;;;;;;;;;;;9.50;99.90;;;;;;5052717;28;20240;-63
2022/05/29 04:14:02;;;;;;;;;;;9.60;99.90;;;;;;5054647;28;20305;-64
2022/05/29 04:16:30;;;;;;;;;;;9.60;99.90;;;;;;5055426;28;20617;-64
2022/05/29 04:18:58;;;;;;;;;;;9.70;99.90;;;;;;5054999;28;20244;-63
2022/05/29 04:21:26;;;;;;;;;;;9.70;99.90;;;;;;5054927;28;20333;-64
2022/05/29 04:23:55;;;;;;;;;;;9.70;99.90;;;;;;5054266;28;20297;-63
2022/05/29 04:26:22;;;;;;;;;;;9.70;99.90;;;;;;5054682;28;20292;-64
2022/05/29 04:28:50;;;;;;;;;;;9.70;99.90;;;;;;5054831;28;20289;-62
2022/05/29 04:31:18;;;;;;;;;;;9.70;99.90;;;;;;5054932;28;20222;-64
2022/05/29 04:33:46;;;;;;;;;;;9.80;99.90;;;;;;5053815;28;20767;-64
2022/05/29 04:36:14;;;;;;;;;;;9.80;99.90;;;;;;5055079;28;20198;-63
2022/05/29 04:38:42;;;;;;;;;;;9.80;99.90;;;;;;5054295;28;20198;-64
2022/05/29 04:41:11;;;;;;;;;;;9.90;99.90;;;;;;5054179;28;20198;-64
2022/05/29 04:43:39;;;;;;;;;;;10.00;99.90;;;;;;5057315;28;20276;-64
2022/05/29 04:46:07;;;;;;;;;;;10.00;99.90;;;;;;5054493;28;20233;-63
2022/05/29 04:48:35;;;;;;;;;;;10.10;99.90;;;;;;5054468;28;20241;-64
2022/05/29 04:51:04;;;;;;;;;;;10.30;99.90;;;;;;5054457;28;20221;-63
2022/05/29 04:53:32;;;;;;;;;;;10.40;99.90;;;;;;5054413;28;20203;-63
2022/05/29 04:56:00;;;;;;;;;;;10.30;99.90;;;;;;5054114;28;20229;-63
2022/05/29 04:58:30;;;;;;;;;;;10.40;99.90;;;;;;5073549;28;20244;-64
2022/05/29 05:00:58;;;;;;;;;;;10.40;99.90;;;;;;5047488;28;20194;-63
2022/05/29 05:03:26;;;;;;;;;;;10.30;99.90;;;;;;5046565;28;20214;-63
2022/05/29 05:05:54;;;;;;;;;;;10.30;99.90;;;;;;5047387;28;20198;-64
2022/05/29 05:08:22;;;;;;;;;;;10.30;99.90;;;;;;5047622;28;20202;-64
2022/05/29 05:10:50;;;;;;;;;;;10.30;99.90;;;;;;5051862;28;20209;-64
2022/05/29 05:13:17;;;;;;;;;;;10.20;99.90;;;;;;5046501;28;20698;-64
2022/05/29 05:15:46;;;;;;;;;;;10.20;99.90;;;;;;5047030;28;20615;-64
2022/05/29 05:18:14;;;;;;;;;;;10.20;99.90;;;;;;5047594;28;20233;-63
2022/05/29 05:20:42;;;;;;;;;;;10.20;99.90;;;;;;5047207;28;20241;-63
2022/05/29 05:23:10;;;;;;;;;;;10.20;99.90;;;;;;5046565;28;20358;-63
2022/05/29 05:25:38;;;;;;;;;;;10.20;99.90;;;;;;5053165;28;20193;-63
2022/05/29 05:28:06;;;;;;;;;;;10.20;99.90;;;;;;5046843;28;20209;-64
2022/05/29 05:30:33;;;;;;;;;;;10.40;99.90;;;;;;5047492;28;20226;-63
2022/05/29 05:33:03;;;;;;;;;;;10.50;99.90;;;;;;5046090;28;20225;-63
2022/05/29 05:35:30;;;;;;;;;;;10.60;99.90;;;;;;5046900;28;20263;-63
2022/05/29 05:37:58;;;;;;;;;;;10.80;99.90;;;;;;5047035;28;20248;-63
2022/05/29 05:40:26;;;;;;;;;;;10.90;99.90;;;;;;5057061;28;20736;-63
2022/05/29 05:42:53;;;;;;;;;;;10.90;99.90;;;;;;5054688;28;20224;-63
2022/05/29 05:45:21;;;;;;;;;;;11.10;99.90;;;;;;5046798;28;20209;-63
2022/05/29 05:47:49;;;;;;;;;;;11.10;99.90;;;;;;5072923;28;20675;-64
2022/05/29 05:50:18;;;;;;;;;;;11.10;99.90;;;;;;5072610;28;20260;-64
2022/05/29 05:52:46;;;;;;;;;;;11.30;99.90;;;;;;5045793;28;20210;-64
2022/05/29 05:55:14;;;;;;;;;;;11.30;99.90;;;;;;5046399;28;20198;-64
2022/05/29 05:57:42;;;;;;;;;;;11.40;99.90;;;;;;5046339;28;20198;-64
2022/05/29 06:00:12;;;;;;;;;;;11.70;99.90;;;;;;5052909;28;20253;-63
2022/05/29 06:02:40;;;;;;;;;;;11.70;99.90;;;;;;5052109;28;20240;-63
2022/05/29 06:05:08;;;;;;;;;;;11.90;99.90;;;;;;5046719;28;20264;-63
2022/05/29 06:07:37;;;;;;;;;;;11.90;99.90;;;;;;5046913;28;20198;-64
2022/05/29 06:10:06;;;;;;;;;;;11.90;99.90;;;;;;5046946;28;20198;-64
2022/05/29 06:12:33;;;;;;;;;;;11.90;99.90;;;;;;5051966;28;20293;-63
2022/05/29 06:15:01;;;;;;;;;;;11.90;99.90;;;;;;5052780;28;20230;-64
2022/05/29 06:17:30;;;;;;;;;;;12.00;99.90;;;;;;5052804;28;20652;-63
2022/05/29 06:19:57;;;;;;;;;;;12.20;99.90;;;;;;5052760;28;20233;-64
2022/05/29 06:22:25;;;;;;;;;;;12.50;99.90;;;;;;5051772;28;20194;-63
2022/05/29 06:24:54;;;;;;;;;;;12.60;99.90;;;;;;5052896;28;20206;-64
2022/05/29 06:27:22;;;;;;;;;;;12.60;99.90;;;;;;5052369;28;20320;-64
2022/05/29 06:29:49;;;;;;;;;;;12.70;99.90;;;;;;5051816;28;20237;-64
2022/05/29 06:32:17;;;;;;;;;;;12.80;99.90;;;;;;5052200;28;20624;-63
2022/05/29 06:34:45;;;;;;;;;;;12.70;99.90;;;;;;5052633;28;20236;-64
2022/05/29 06:37:13;;;;;;;;;;;12.70;99.90;;;;;;5052262;28;20240;-64
2022/05/29 06:39:40;;;;;;;;;;;12.80;99.90;;;;;;5045992;28;20207;-64
2022/05/29 06:42:09;;;;;;;;;;;12.90;99.90;;;;;;5054829;28;20284;-64
2022/05/29 06:44:37;;;;;;;;;;;13.00;99.90;;;;;;5046059;28;20206;-64
2022/05/29 06:47:07;;;;;;;;;;;13.20;99.90;;;;;;5052335;28;20198;-64
2022/05/29 06:49:34;;;;;;;;;;;13.30;99.90;;;;;;5051863;28;20252;-64
2022/05/29 06:52:05;;;;;;;;;;;13.40;99.90;;;;;;5051415;28;20203;-64
2022/05/29 06:54:32;;;;;;;;;;;13.50;99.90;;;;;;5052051;28;20282;-64
2022/05/29 06:57:00;;;;;;;;;;;13.70;99.90;;;;;;5051997;28;20205;-64
2022/05/29 06:59:30;;;;;;;;;;;13.80;99.90;;;;;;5052093;28;20802;-63
2022/05/29 07:07:28;;;;;;;;;;;14.20;99.90;;;;;;5051990;28;20202;-64
2022/05/29 07:09:56;;;;;;;;;;;14.30;99.90;;;;;;5051560;28;20203;-64
2022/05/29 07:12:26;;;;;;;;;;;14.40;99.90;;;;;;5050692;28;20199;-64
2022/05/29 07:14:57;;;;;;;;;;;14.60;99.90;;;;;;5051945;28;20206;-62
2022/05/29 07:17:27;;;;;;;;;;;14.60;99.40;;;;;;5051826;28;20289;-64
2022/05/29 07:19:55;;;;;;;;;;;14.60;98.90;;;;;;5051533;28;20623;-65
2022/05/29 07:22:23;;;;;;;;;;;14.70;99.10;;;;;;5050858;28;20285;-64
2022/05/29 07:24:51;;;;;;;;;;;14.70;98.20;;;;;;5051596;28;20195;-62
2022/05/29 07:27:18;;;;;;;;;;;14.60;98.50;;;;;;5051540;28;20209;-62
2022/05/29 07:29:46;;;;;;;;;;;14.40;99.50;;;;;;5051508;28;20228;-62
2022/05/29 07:32:15;;;;;;;;;;;14.10;99.20;;;;;;5050817;28;20437;-64
2022/05/29 07:34:43;;;;;;;;;;;14.10;99.50;;;;;;5051415;28;20710;-64
2022/05/29 07:37:13;;;;;;;;;;;14.00;98.40;;;;;;5070701;28;20245;-64
2022/05/29 07:39:42;;;;;;;;;;;13.90;98.80;;;;;;5044626;28;20206;-63
2022/05/29 07:44:55;;;;;;;;;;;13.50;98.80;;;;;;5051398;28;20256;-64
2022/05/29 07:47:27;;;;;;;;;;;13.50;99.90;;;;;;5055564;28;20209;-63
2022/05/29 07:49:56;;;;;;;;;;;13.50;99.90;;;;;;5055447;28;20248;-64
2022/05/29 07:52:24;;;;;;;;;;;13.40;99.90;;;;;;5054905;28;20222;-64
2022/05/29 07:54:52;;;;;;;;;;;13.30;99.90;;;;;;5055665;28;20290;-64
2022/05/29 07:57:20;;;;;;;;;;;13.40;99.80;;;;;;5055506;28;20641;-64
2022/05/29 07:59:48;;;;;;;;;;;13.70;98.90;;;;;;5055342;28;20211;-64
2022/05/29 08:02:15;;;;;;;;;;;14.10;98.90;;;;;;5054232;28;20293;-64
2022/05/29 08:04:45;;;;;;;;;;;14.70;99.90;;;;;;5079435;22;20214;-70
2022/05/29 08:07:15;;;;;;;;;;;14.80;98.70;;;;;;5054596;28;20293;-71
2022/05/29 08:09:42;;;;;;;;;;;14.80;97.60;;;;;;5036703;28;20241;-72
2022/05/29 08:12:10;;;;;;;;;;;14.70;96.30;;;;;;5053631;28;20244;-76
2022/05/29 08:14:38;;;;;;;;;;;14.60;96.90;;;;;;5054575;28;20251;-76
2022/05/29 08:17:09;;;;;;;;;;;14.50;98.00;;;;;;5054633;28;20609;-73
2022/05/29 08:19:38;;;;;;;;;;;14.40;97.40;;;;;;5054567;28;20281;-74
2022/05/29 08:22:07;;;;;;;;;;;14.40;96.70;;;;;;5053755;28;20199;-73
2022/05/29 08:33:00;;;;;;;;;;;14.80;95.10;;;;;;5035729;28;20300;-76
2022/05/29 08:35:28;;;;;;;;;;;15.20;94.10;;;;;;5054641;28;20301;-73
2022/05/29 08:37:57;;;;;;;;;;;15.60;92.20;;;;;;5054204;28;20660;-73
2022/05/29 08:40:24;;;;;;;;;;;15.90;93.00;;;;;;5054031;28;20194;-74
2022/05/29 08:42:52;;;;;;;;;;;15.90;92.20;;;;;;5053230;28;20283;-75
2022/05/29 08:45:20;;;;;;;;;;;16.30;91.90;;;;;;5054074;28;20198;-71
2022/05/29 08:47:48;;;;;;;;;;;16.60;91.20;;;;;;5054000;28;20629;-71
2022/05/29 08:50:17;;;;;;;;;;;16.90;91.90;;;;;;5054048;28;20237;-72
2022/05/29 08:52:51;;;;;;;;;;;17.20;90.50;;;;;;5052728;28;20233;-74
2022/05/29 08:55:23;;;;;;;;;;;17.30;89.90;;;;;;5053601;28;20658;-72
2022/05/29 08:57:57;;;;;;;;;;;17.30;90.30;;;;;;5053765;28;20241;-71
2022/05/29 09:00:30;;;;;;;;;;;17.70;89.50;;;;;;5048305;28;20206;-72
2022/05/29 09:03:09;;;;;;;;;;;17.80;88.00;;;;;;5052714;28;20675;-72
2022/05/29 09:05:41;;;;;;;;;;;17.80;87.50;;;;;;5053441;28;20206;-71
2022/05/29 09:08:11;;;;;;;;;;;18.00;88.10;;;;;;5053913;28;20225;-72
2022/05/29 09:10:42;;;;;;;;;;;18.30;86.90;;;;;;5053307;28;20198;-71
2022/05/29 09:13:13;;;;;;;;;;;18.60;86.70;;;;;;5051686;28;20191;-70
2022/05/29 09:15:44;;;;;;;;;;;18.30;85.50;;;;;;5052657;28;20256;-71
2022/05/29 09:18:15;;;;;;;;;;;18.00;85.80;;;;;;5053272;28;20567;-72
2022/05/29 09:20:44;;;;;;;;;;;17.50;87.00;;;;;;5053513;28;20202;-71
2022/05/29 09:23:18;;;;;;;;;;;17.40;87.90;;;;;;5052430;28;20194;-73
2022/05/29 09:25:47;;;;;;;;;;;17.30;85.40;;;;;;5053132;28;20251;-71
2022/05/29 09:28:17;;;;;;;;;;;17.20;88.50;;;;;;5053271;28;20242;-71
2022/05/29 09:30:45;;;;;;;;;;;17.40;85.30;;;;;;5053254;28;20202;-71
2022/05/29 09:33:16;;;;;;;;;;;17.10;81.90;;;;;;5052527;28;20205;-72
2022/05/29 09:35:46;;;;;;;;;;;17.10;82.30;;;;;;5052937;28;20249;-71
2022/05/29 09:38:19;;;;;;;;;;;16.90;86.60;;;;;;5053327;28;20230;-71
2022/05/29 09:40:53;;;;;;;;;;;16.80;87.40;;;;;;5053297;28;20289;-71
2022/05/29 09:43:22;;;;;;;;;;;16.60;87.60;;;;;;5052025;28;20194;-73
2022/05/29 09:45:50;;;;;;;;;;;16.60;84.90;;;;;;5052506;28;20230;-72
2022/05/29 09:51:09;;;;;;;;;;;17.00;83.40;;;;;;5052948;28;20292;-72
2022/05/29 09:53:42;;;;;;;;;;;17.20;85.90;;;;;;5052018;28;20194;-71
2022/05/29 09:56:12;;;;;;;;;;;17.80;84.60;;;;;;5052573;28;20194;-71
2022/05/29 09:58:45;;;;;;;;;;;18.20;82.90;;;;;;5052449;28;20288;-72
2022/05/29 10:01:25;;;;;;;;;;;18.60;84.40;;;;;;5052706;28;20233;-72
2022/05/29 10:03:54;;;;;;;;;;;18.50;82.90;;;;;;5050618;28;20211;-72
2022/05/29 10:06:25;;;;;;;;;;;18.10;84.10;;;;;;5052427;28;20272;-73
2022/05/29 10:08:56;;;;;;;;;;;17.70;84.80;;;;;;5052429;28;20205;-72
2022/05/29 10:11:28;;;;;;;;;;;17.60;85.10;;;;;;5052418;28;20201;-71
2022/05/29 10:13:56;;;;;;;;;;;17.50;84.40;;;;;;5051491;28;20194;-72
2022/05/29 10:16:32;;;;;;;;;;;17.90;86.70;;;;;;5052173;28;20198;-72
2022/05/29 10:19:00;;;;;;;;;;;18.40;85.10;;;;;;5051821;28;20203;-71
2022/05/29 10:21:29;;;;;;;;;;;18.90;82.90;;;;;;5052567;28;20252;-72
2022/05/29 10:24:11;;;;;;;;;;;18.60;81.30;;;;;;5051459;28;20290;-72
2022/05/29 10:26:40;;;;;;;;;;;18.10;81.50;;;;;;5052172;28;20193;-71
2022/05/29 10:29:16;;;;;;;;;;;17.70;84.50;;;;;;5051964;28;20202;-73
2022/05/29 10:31:46;;;;;;;;;;;17.60;85.10;;;;;;5052097;28;20237;-73
2022/05/29 10:34:15;;;;;;;;;;;17.40;87.00;;;;;;5051191;28;20215;-73
2022/05/29 10:36:48;;;;;;;;;;;17.20;88.00;;;;;;5051748;28;20198;-73
2022/05/29 10:39:20;;;;;;;;;;;17.30;89.60;;;;;;5051941;28;20202;-72
2022/05/29 10:41:50;;;;;;;;;;;17.30;88.00;;;;;;5051828;28;20357;-72
2022/05/29 10:44:38;;;;;;;;;;;17.30;88.20;;;;;;5050706;28;20268;-71
2022/05/29 10:47:08;;;;;;;;;;;17.80;87.50;;;;;;5046831;28;20210;-72
2022/05/29 10:49:38;;;;;;;;;;;18.40;86.20;;;;;;5051819;28;20665;-71
2022/05/29 10:52:24;;;;;;;;;;;19.00;83.60;;;;;;5050917;28;20248;-71
2022/05/29 10:55:01;;;;;;;;;;;19.70;82.80;;;;;;5051365;28;20222;-73
2022/05/29 10:57:49;;;;;;;;;;;20.60;79.50;;;;;;5051678;28;20203;-72
2022/05/29 11:00:22;;;;;;;;;;;21.00;80.70;;;;;;5051571;28;20228;-73
2022/05/29 11:03:19;;;;;;;;;;;21.40;76.50;;;;;;5050793;28;20232;-72
2022/05/29 11:06:04;;;;;;;;;;;21.90;75.80;;;;;;5011429;28;20246;-73
2022/05/29 11:08:38;;;;;;;;;;;22.20;74.20;;;;;;5011781;28;20269;-72
2022/05/29 11:11:18;;;;;;;;;;;21.80;73.20;;;;;;5011813;28;20660;-72
2022/05/29 11:13:57;;;;;;;;;;;21.40;75.60;;;;;;5010728;28;20246;-72
2022/05/29 11:16:30;;;;;;;;;;;21.00;74.80;;;;;;5011562;28;20644;-71
2022/05/29 11:19:03;;;;;;;;;;;20.60;75.30;;;;;;5011295;28;20231;-73
2022/05/29 11:21:39;;;;;;;;;;;20.20;77.10;;;;;;5006445;28;20195;-72
2022/05/29 11:24:19;;;;;;;;;;;20.00;77.20;;;;;;5010784;28;20249;-72
2022/05/29 11:26:51;;;;;;;;;;;19.80;78.80;;;;;;5011772;28;20238;-72
2022/05/29 11:29:38;;;;;;;;;;;19.90;78.50;;;;;;5011612;28;20249;-72
2022/05/29 11:32:24;;;;;;;;;;;19.70;77.50;;;;;;5006530;28;20755;-75
2022/05/29 11:35:01;;;;;;;;;;;19.50;74.70;;;;;;5011440;28;20337;-70
2022/05/29 11:37:38;;;;;;;;;;;19.10;78.30;;;;;;5011838;28;20290;-73
2022/05/29 11:40:11;;;;;;;;;;;19.00;78.60;;;;;;5011736;28;20282;-72
2022/05/29 11:42:44;;;;;;;;;;;19.50;75.80;;;;;;5010797;28;20207;-73
2022/05/29 11:45:15;;;;;;;;;;;19.80;74.70;;;;;;5011288;28;20222;-73
2022/05/29 11:53:22;;;;;;;;;;;18.80;77.00;;;;;;5001722;28;20333;-72
2022/05/29 11:55:50;;;;;;;;;;;18.30;79.00;;;;;;5011411;28;20286;-70
2022/05/29 11:58:20;;;;;;;;;;;18.00;79.60;;;;;;5011341;28;20207;-71
2022/05/29 12:00:52;;;;;;;;;;;17.60;78.40;;;;;;5011389;28;20310;-75
2022/05/29 12:03:26;;;;;;;;;;;17.60;80.10;;;;;;5017627;28;20264;-72
2022/05/29 12:05:56;;;;;;;;;;;17.70;82.70;;;;;;5045018;28;20210;-72
2022/05/29 12:08:28;;;;;;;;;;;17.70;77.90;;;;;;5050904;28;20249;-72
2022/05/29 12:11:00;;;;;;;;;;;17.90;79.20;;;;;;5050971;28;20264;-72
2022/05/29 12:13:30;;;;;;;;;;;18.00;79.30;;;;;;5050046;28;20244;-72
2022/05/29 12:16:01;;;;;;;;;;;18.00;79.70;;;;;;5050449;28;20252;-71
2022/05/29 12:18:34;;;;;;;;;;;18.00;79.10;;;;;;5050835;28;20206;-72
2022/05/29 12:21:02;;;;;;;;;;;18.00;80.00;;;;;;5050780;28;20202;-75
2022/05/29 12:23:32;;;;;;;;;;;18.10;79.00;;;;;;5049737;28;20494;-72
2022/05/29 12:26:01;;;;;;;;;;;18.10;79.60;;;;;;5050669;28;20249;-75
2022/05/29 12:28:34;;;;;;;;;;;18.00;78.60;;;;;;5054418;28;20210;-72
2022/05/29 12:31:04;;;;;;;;;;;17.90;83.10;;;;;;5054297;28;20202;-75
2022/05/29 12:33:32;;;;;;;;;;;18.10;80.00;;;;;;5053611;28;20226;-72
2022/05/29 12:36:05;;;;;;;;;;;18.30;79.00;;;;;;5054173;28;20203;-72
2022/05/29 12:38:42;;;;;;;;;;;18.50;79.80;;;;;;5054282;28;20198;-72
2022/05/29 12:41:18;;;;;;;;;;;18.60;78.30;;;;;;5054406;28;20606;-72
2022/05/29 12:44:05;;;;;;;;;;;18.70;77.40;;;;;;5053255;28;20230;-72
2022/05/29 12:46:41;;;;;;;;;;;18.70;79.80;;;;;;5053939;28;20703;-73
2022/05/29 12:49:28;;;;;;;;;;;18.60;79.30;;;;;;5052237;28;20264;-72
2022/05/29 12:52:07;;;;;;;;;;;18.60;77.90;;;;;;5053470;28;20206;-71
2022/05/29 12:54:53;;;;;;;;;;;18.80;78.70;;;;;;5054065;28;20210;-72
2022/05/29 12:57:32;;;;;;;;;;;19.30;78.10;;;;;;5054094;28;20256;-72
2022/05/29 13:00:19;;;;;;;;;;;19.20;78.80;;;;;;5053637;28;20614;-72
2022/05/29 13:03:01;;;;;;;;;;;18.50;78.20;;;;;;5053052;28;20226;-73
2022/05/29 13:05:41;;;;;;;;;;;18.30;79.20;;;;;;5020832;28;20724;-72
2022/05/29 13:08:29;;;;;;;;;;;18.00;80.60;;;;;;5053764;28;20260;-72
2022/05/29 13:10:58;;;;;;;;;;;18.00;82.60;;;;;;5055153;28;20234;-73
2022/05/29 13:13:31;;;;;;;;;;;17.90;84.40;;;;;;5052522;28;20210;-73
2022/05/29 13:16:14;;;;;;;;;;;17.60;84.30;;;;;;5053312;28;20234;-72
2022/05/29 13:19:03;;;;;;;;;;;17.50;85.50;;;;;;5053095;28;20216;-72
2022/05/29 13:21:32;;;;;;;;;;;17.40;85.80;;;;;;5053681;28;20256;-72
2022/05/29 13:23:59;;;;;;;;;;;17.50;85.60;;;;;;5046358;28;20248;-72
2022/05/29 13:26:28;;;;;;;;;;;18.00;84.60;;;;;;5053396;28;20228;-73
2022/05/29 13:28:59;;;;;;;;;;;18.80;81.60;;;;;;5053330;28;20202;-72
2022/05/29 13:31:31;;;;;;;;;;;19.10;81.30;;;;;;5053523;28;20206;-72
2022/05/29 13:34:18;;;;;;;;;;;19.10;80.50;;;;;;5052306;28;20198;-72
2022/05/29 13:37:06;;;;;;;;;;;19.30;79.70;;;;;;5053004;28;20238;-73
2022/05/29 13:40:03;;;;;;;;;;;18.80;79.30;;;;;;5053170;28;20206;-72
2022/05/29 13:42:34;;;;;;;;;;;18.60;81.40;;;;;;5052166;28;20374;-75
2022/05/29 13:45:33;;;;;;;;;;;17.90;85.70;;;;;;5052611;28;20312;-72
2022/05/29 13:48:12;;;;;;;;;;;17.70;83.90;;;;;;5052550;28;20202;-72
2022/05/29 13:50:47;;;;;;;;;;;17.50;82.70;;;;;;5053069;28;20194;-72
2022/05/29 13:53:23;;;;;;;;;;;17.60;83.00;;;;;;5052087;28;20198;-72
2022/05/29 13:55:57;;;;;;;;;;;17.80;84.30;;;;;;5052525;28;20224;-73
2022/05/29 14:04:19;;;;;;;;;;;18.80;81.80;;;;;;5038829;22;20674;-63
2022/05/29 14:07:08;;;;;;;;;;;19.70;81.60;;;;;;5052518;28;20260;-63
2022/05/29 14:09:37;;;;;;;;;;;20.70;79.40;;;;;;5052350;28;20214;-63
2022/05/29 14:12:07;;;;;;;;;;;21.50;73.90;;;;;;5051927;28;20233;-63
2022/05/29 14:14:52;;;;;;;;;;;22.00;76.00;;;;;;5052257;28;20206;-63
2022/05/29 14:17:23;;;;;;;;;;;22.70;76.60;;;;;;5052482;28;20288;-63
2022/05/29 14:20:01;;;;;;;;;;;22.90;74.20;;;;;;5045868;28;20213;-63
2022/05/29 14:22:43;;;;;;;;;;;22.80;74.70;;;;;;5051378;28;20285;-63
2022/05/29 14:25:18;;;;;;;;;;;22.80;74.80;;;;;;5052119;28;20689;-63
2022/05/29 14:28:04;;;;;;;;;;;22.70;75.50;;;;;;5052389;28;20730;-63
2022/05/29 14:30:37;;;;;;;;;;;23.00;74.00;;;;;;5052042;28;20206;-63
2022/05/29 14:33:17;;;;;;;;;;;22.90;75.40;;;;;;5051287;28;20293;-64
2022/05/29 14:35:59;;;;;;;;;;;23.30;74.30;;;;;;5052528;28;20205;-63
2022/05/29 14:38:35;;;;;;;;;;;24.00;71.00;;;;;;5052125;28;20206;-63
2022/05/29 14:41:08;;;;;;;;;;;24.30;69.90;;;;;;5051910;28;20576;-63
2022/05/29 14:43:40;;;;;;;;;;;24.60;70.80;;;;;;5051245;28;20195;-64
2022/05/29 14:46:18;;;;;;;;;;;24.90;70.10;;;;;;5045525;28;20676;-63
2022/05/29 14:48:55;;;;;;;;;;;24.90;66.50;;;;;;5052002;28;20204;-64
2022/05/29 14:51:30;;;;;;;;;;;24.60;67.60;;;;;;5052021;28;20206;-64
2022/05/29 14:54:01;;;;;;;;;;;24.60;70.70;;;;;;5051147;28;20699;-64
2022/05/29 14:56:30;;;;;;;;;;;24.80;71.60;;;;;;5052088;28;20249;-63
2022/05/29 14:59:14;;;;;;;;;;;25.00;70.50;;;;;;5051677;28;20203;-64
2022/05/29 15:01:42;;;;;;;;;;;24.80;69.50;;;;;;5051553;28;20272;-64
2022/05/29 15:04:11;;;;;;;;;;;24.60;71.90;;;;;;5050303;28;20210;-64
2022/05/29 15:12:21;;;;;;;;;;;24.20;71.30;;;;;;5050648;28;20782;-64
2022/05/29 15:14:49;;;;;;;;;;;23.10;71.80;;;;;;5048632;28;20201;-63
2022/05/29 15:17:22;;;;;;;;;;;22.40;74.40;;;;;;5051195;28;20190;-63
2022/05/29 15:24:08;;;;;;;;;;;21.90;76.00;;;;;;5051176;28;20202;-64
2022/05/29 15:25:54;;;;;;;;;;;20.80;78.00;;;;;;5051340;28;20218;-64
2022/05/29 15:28:22;;;;;;;;;;;20.90;78.50;;;;;;5051494;28;20672;-64
2022/05/29 15:30:50;;;;;;;;;;;21.40;78.60;;;;;;5051047;28;20284;-64